sensor_id;sensor_type;location;lat;lon;timestamp;pressure;altitude;pressure_sealevel;temperature
68952;BMP180;56000;51.146;17.112;2022-08-19T00:00:20;99573.80;;;25.30
68952;BMP180;56000;51.146;17.112;2022-08-19T00:03:08;99575.40;;;25.30
68952;BMP180;56000;51.146;17.112;2022-08-19T00:05:41;99569.40;;;25.30
68952;BMP180;56000;51.146;17.112;2022-08-19T00:08:14;99569.40;;;25.30
68952;BMP180;56000;51.146;17.112;2022-08-19T00:10:47;99568.00;;;25.30
68952;BMP180;56000;51.146;17.112;2022-08-19T00:13:20;99565.80;;;25.30
68952;BMP180;56000;51.146;17.112;2022-08-19T00:15:52;99562.80;;;25.30
68952;BMP180;56000;51.146;17.112;2022-08-19T00:18:25;99556.00;;;25.28
68952;BMP180;56000;51.146;17.112;2022-08-19T00:20:58;99547.80;;;25.20
68952;BMP180;56000;51.146;17.112;2022-08-19T00:23:32;99541.40;;;25.20
68952;BMP180;56000;51.146;17.112;2022-08-19T00:26:07;99535.40;;;25.20
68952;BMP180;56000;51.146;17.112;2022-08-19T00:28:40;99535.00;;;25.10
68952;BMP180;56000;51.146;17.112;2022-08-19T00:31:13;99526.60;;;25.00
68952;BMP180;56000;51.146;17.112;2022-08-19T00:33:48;99521.80;;;24.90
68952;BMP180;56000;51.146;17.112;2022-08-19T00:36:21;99516.60;;;24.80
68952;BMP180;56000;51.146;17.112;2022-08-19T00:38:54;99514.80;;;24.70
68952;BMP180;56000;51.146;17.112;2022-08-19T00:41:28;99510.20;;;24.60
68952;BMP180;56000;51.146;17.112;2022-08-19T00:44:06;99510.40;;;24.60
68952;BMP180;56000;51.146;17.112;2022-08-19T00:46:43;99513.60;;;24.50
68952;BMP180;56000;51.146;17.112;2022-08-19T00:49:32;99516.80;;;24.40
68952;BMP180;56000;51.146;17.112;2022-08-19T00:52:11;99519.80;;;24.40
68952;BMP180;56000;51.146;17.112;2022-08-19T00:54:45;99519.00;;;24.34
68952;BMP180;56000;51.146;17.112;2022-08-19T00:57:28;99514.40;;;24.30
68952;BMP180;56000;51.146;17.112;2022-08-19T01:00:04;99518.40;;;24.30
68952;BMP180;56000;51.146;17.112;2022-08-19T01:02:37;99530.40;;;24.24
68952;BMP180;56000;51.146;17.112;2022-08-19T01:05:16;99529.40;;;24.20
68952;BMP180;56000;51.146;17.112;2022-08-19T01:07:50;99540.60;;;24.20
68952;BMP180;56000;51.146;17.112;2022-08-19T01:10:26;99542.60;;;24.20
68952;BMP180;56000;51.146;17.112;2022-08-19T01:13:07;99517.60;;;24.18
68952;BMP180;56000;51.146;17.112;2022-08-19T01:15:45;99506.60;;;24.20
68952;BMP180;56000;51.146;17.112;2022-08-19T01:18:20;99509.20;;;24.20
68952;BMP180;56000;51.146;17.112;2022-08-19T01:20:56;99498.60;;;24.10
68952;BMP180;56000;51.146;17.112;2022-08-19T01:23:30;99498.20;;;24.10
68952;BMP180;56000;51.146;17.112;2022-08-19T01:26:20;99491.80;;;24.00
68952;BMP180;56000;51.146;17.112;2022-08-19T01:28:56;99478.60;;;24.00
68952;BMP180;56000;51.146;17.112;2022-08-19T01:31:31;99473.00;;;24.00
68952;BMP180;56000;51.146;17.112;2022-08-19T01:34:05;99471.20;;;24.00
68952;BMP180;56000;51.146;17.112;2022-08-19T01:36:42;99461.60;;;24.00
68952;BMP180;56000;51.146;17.112;2022-08-19T01:39:20;99452.40;;;23.90
68952;BMP180;56000;51.146;17.112;2022-08-19T01:41:53;99449.20;;;23.90
68952;BMP180;56000;51.146;17.112;2022-08-19T01:44:26;99448.00;;;23.80
68952;BMP180;56000;51.146;17.112;2022-08-19T01:46:59;99457.20;;;23.80
68952;BMP180;56000;51.146;17.112;2022-08-19T01:49:51;99452.40;;;23.80
68952;BMP180;56000;51.146;17.112;2022-08-19T01:52:24;99448.40;;;23.80
68952;BMP180;56000;51.146;17.112;2022-08-19T01:54:57;99440.80;;;23.82
68952;BMP180;56000;51.146;17.112;2022-08-19T01:57:30;99449.00;;;23.90
68952;BMP180;56000;51.146;17.112;2022-08-19T02:00:08;99446.40;;;23.90
68952;BMP180;56000;51.146;17.112;2022-08-19T02:02:42;99447.20;;;23.84
68952;BMP180;56000;51.146;17.112;2022-08-19T02:05:15;99452.00;;;23.80
68952;BMP180;56000;51.146;17.112;2022-08-19T02:07:50;99449.00;;;23.80
68952;BMP180;56000;51.146;17.112;2022-08-19T02:10:24;99448.80;;;23.70
68952;BMP180;56000;51.146;17.112;2022-08-19T02:12:57;99451.40;;;23.70
68952;BMP180;56000;51.146;17.112;2022-08-19T02:15:30;99450.40;;;23.64
68952;BMP180;56000;51.146;17.112;2022-08-19T02:18:04;99456.60;;;23.60
68952;BMP180;56000;51.146;17.112;2022-08-19T02:20:40;99451.60;;;23.60
68952;BMP180;56000;51.146;17.112;2022-08-19T02:23:15;99444.80;;;23.50
68952;BMP180;56000;51.146;17.112;2022-08-19T02:25:50;99440.80;;;23.50
68952;BMP180;56000;51.146;17.112;2022-08-19T02:28:23;99429.80;;;23.48
68952;BMP180;56000;51.146;17.112;2022-08-19T02:30:56;99422.60;;;23.40
68952;BMP180;56000;51.146;17.112;2022-08-19T02:33:32;99422.80;;;23.40
68952;BMP180;56000;51.146;17.112;2022-08-19T02:36:07;99423.40;;;23.30
68952;BMP180;56000;51.146;17.112;2022-08-19T02:38:42;99430.20;;;23.30
68952;BMP180;56000;51.146;17.112;2022-08-19T02:41:27;99427.20;;;23.26
68952;BMP180;56000;51.146;17.112;2022-08-19T02:44:02;99424.20;;;23.20
68952;BMP180;56000;51.146;17.112;2022-08-19T02:46:55;99417.00;;;23.20
68952;BMP180;56000;51.146;17.112;2022-08-19T02:49:30;99414.20;;;23.10
68952;BMP180;56000;51.146;17.112;2022-08-19T02:52:05;99419.60;;;23.10
68952;BMP180;56000;51.146;17.112;2022-08-19T02:54:38;99418.60;;;23.10
68952;BMP180;56000;51.146;17.112;2022-08-19T02:57:11;99421.40;;;23.10
68952;BMP180;56000;51.146;17.112;2022-08-19T02:59:44;99423.60;;;23.00
68952;BMP180;56000;51.146;17.112;2022-08-19T03:02:17;99424.40;;;23.00
68952;BMP180;56000;51.146;17.112;2022-08-19T03:04:50;99418.60;;;23.00
68952;BMP180;56000;51.146;17.112;2022-08-19T03:07:23;99411.80;;;23.00
68952;BMP180;56000;51.146;17.112;2022-08-19T03:09:56;99413.20;;;22.90
68952;BMP180;56000;51.146;17.112;2022-08-19T03:12:29;99414.80;;;22.90
68952;BMP180;56000;51.146;17.112;2022-08-19T03:15:02;99419.80;;;22.90
68952;BMP180;56000;51.146;17.112;2022-08-19T03:17:35;99418.20;;;22.84
68952;BMP180;56000;51.146;17.112;2022-08-19T03:20:10;99431.60;;;22.80
68952;BMP180;56000;51.146;17.112;2022-08-19T03:22:43;99441.60;;;22.80
68952;BMP180;56000;51.146;17.112;2022-08-19T03:25:16;99453.20;;;22.78
68952;BMP180;56000;51.146;17.112;2022-08-19T03:27:49;99454.00;;;22.70
68952;BMP180;56000;51.146;17.112;2022-08-19T03:30:22;99457.40;;;22.70
68952;BMP180;56000;51.146;17.112;2022-08-19T03:32:55;99457.60;;;22.60
68952;BMP180;56000;51.146;17.112;2022-08-19T03:35:30;99460.60;;;22.50
68952;BMP180;56000;51.146;17.112;2022-08-19T03:38:03;99462.40;;;22.40
68952;BMP180;56000;51.146;17.112;2022-08-19T03:40:39;99458.20;;;22.40
68952;BMP180;56000;51.146;17.112;2022-08-19T03:43:12;99448.00;;;22.30
68952;BMP180;56000;51.146;17.112;2022-08-19T03:45:59;99456.60;;;22.20
68952;BMP180;56000;51.146;17.112;2022-08-19T03:48:32;99456.80;;;22.14
68952;BMP180;56000;51.146;17.112;2022-08-19T03:51:07;99457.40;;;22.10
68952;BMP180;56000;51.146;17.112;2022-08-19T03:53:40;99445.40;;;22.10
68952;BMP180;56000;51.146;17.112;2022-08-19T03:56:13;99450.00;;;22.00
68952;BMP180;56000;51.146;17.112;2022-08-19T03:58:47;99456.00;;;22.00
68952;BMP180;56000;51.146;17.112;2022-08-19T04:01:22;99454.60;;;22.00
68952;BMP180;56000;51.146;17.112;2022-08-19T04:04:06;99465.00;;;22.00
68952;BMP180;56000;51.146;17.112;2022-08-19T04:06:40;99461.40;;;22.08
68952;BMP180;56000;51.146;17.112;2022-08-19T04:09:14;99473.60;;;22.10
68952;BMP180;56000;51.146;17.112;2022-08-19T04:11:56;99482.00;;;22.10
68952;BMP180;56000;51.146;17.112;2022-08-19T04:14:31;99481.60;;;22.10
68952;BMP180;56000;51.146;17.112;2022-08-19T04:17:05;99481.20;;;22.10
68952;BMP180;56000;51.146;17.112;2022-08-19T04:19:39;99475.00;;;22.20
68952;BMP180;56000;51.146;17.112;2022-08-19T04:22:12;99477.00;;;22.20
68952;BMP180;56000;51.146;17.112;2022-08-19T04:24:45;99477.80;;;22.30
68952;BMP180;56000;51.146;17.112;2022-08-19T04:27:17;99486.80;;;22.30
68952;BMP180;56000;51.146;17.112;2022-08-19T04:29:50;99486.60;;;22.40
68952;BMP180;56000;51.146;17.112;2022-08-19T04:32:25;99490.40;;;22.48
68952;BMP180;56000;51.146;17.112;2022-08-19T04:34:58;99495.60;;;22.50
68952;BMP180;56000;51.146;17.112;2022-08-19T04:37:48;99484.60;;;22.60
68952;BMP180;56000;51.146;17.112;2022-08-19T04:40:21;99484.20;;;22.70
68952;BMP180;56000;51.146;17.112;2022-08-19T04:43:11;99477.60;;;22.70
68952;BMP180;56000;51.146;17.112;2022-08-19T04:45:47;99470.40;;;22.80
68952;BMP180;56000;51.146;17.112;2022-08-19T04:48:26;99467.60;;;22.90
68952;BMP180;56000;51.146;17.112;2022-08-19T04:51:00;99474.00;;;22.90
68952;BMP180;56000;51.146;17.112;2022-08-19T04:53:35;99469.60;;;23.00
68952;BMP180;56000;51.146;17.112;2022-08-19T04:56:11;99471.00;;;23.00
68952;BMP180;56000;51.146;17.112;2022-08-19T04:58:46;99474.00;;;23.04
68952;BMP180;56000;51.146;17.112;2022-08-19T05:01:24;99474.60;;;23.10
68952;BMP180;56000;51.146;17.112;2022-08-19T05:04:00;99471.40;;;23.20
68952;BMP180;56000;51.146;17.112;2022-08-19T05:06:35;99466.40;;;23.30
68952;BMP180;56000;51.146;17.112;2022-08-19T05:09:08;99462.00;;;23.38
68952;BMP180;56000;51.146;17.112;2022-08-19T05:11:41;99465.80;;;23.40
68952;BMP180;56000;51.146;17.112;2022-08-19T05:14:14;99461.60;;;23.40
68952;BMP180;56000;51.146;17.112;2022-08-19T05:16:48;99470.40;;;23.50
68952;BMP180;56000;51.146;17.112;2022-08-19T05:19:41;99467.60;;;23.60
68952;BMP180;56000;51.146;17.112;2022-08-19T05:22:31;99466.00;;;23.60
68952;BMP180;56000;51.146;17.112;2022-08-19T05:25:11;99472.80;;;23.66
68952;BMP180;56000;51.146;17.112;2022-08-19T05:27:45;99476.80;;;23.80
68952;BMP180;56000;51.146;17.112;2022-08-19T05:30:18;99470.80;;;23.90
68952;BMP180;56000;51.146;17.112;2022-08-19T05:33:04;99471.40;;;23.90
68952;BMP180;56000;51.146;17.112;2022-08-19T05:35:39;99469.20;;;23.90
68952;BMP180;56000;51.146;17.112;2022-08-19T05:38:12;99465.60;;;23.90
68952;BMP180;56000;51.146;17.112;2022-08-19T05:40:45;99465.80;;;24.00
68952;BMP180;56000;51.146;17.112;2022-08-19T05:43:19;99469.40;;;24.10
68952;BMP180;56000;51.146;17.112;2022-08-19T05:45:52;99479.80;;;24.10
68952;BMP180;56000;51.146;17.112;2022-08-19T05:48:25;99480.00;;;24.10
68952;BMP180;56000;51.146;17.112;2022-08-19T05:51:02;99480.60;;;24.10
68952;BMP180;56000;51.146;17.112;2022-08-19T05:53:36;99478.20;;;24.14
68952;BMP180;56000;51.146;17.112;2022-08-19T05:56:12;99476.60;;;24.20
68952;BMP180;56000;51.146;17.112;2022-08-19T05:58:47;99481.40;;;24.30
68952;BMP180;56000;51.146;17.112;2022-08-19T06:01:21;99470.00;;;24.40
68952;BMP180;56000;51.146;17.112;2022-08-19T06:03:54;99465.40;;;24.40
68952;BMP180;56000;51.146;17.112;2022-08-19T06:06:27;99470.80;;;24.50
68952;BMP180;56000;51.146;17.112;2022-08-19T06:09:01;99482.20;;;24.60
68952;BMP180;56000;51.146;17.112;2022-08-19T06:11:41;99489.20;;;24.60
68952;BMP180;56000;51.146;17.112;2022-08-19T06:14:18;99503.20;;;24.62
68952;BMP180;56000;51.146;17.112;2022-08-19T06:16:58;99509.20;;;24.70
68952;BMP180;56000;51.146;17.112;2022-08-19T06:19:37;99506.80;;;24.70
68952;BMP180;56000;51.146;17.112;2022-08-19T06:22:12;99512.60;;;24.80
68952;BMP180;56000;51.146;17.112;2022-08-19T06:24:45;99528.20;;;24.82
68952;BMP180;56000;51.146;17.112;2022-08-19T06:27:17;99529.80;;;24.90
68952;BMP180;56000;51.146;17.112;2022-08-19T06:29:50;99533.00;;;25.00
68952;BMP180;56000;51.146;17.112;2022-08-19T06:32:24;99537.80;;;25.00
68952;BMP180;56000;51.146;17.112;2022-08-19T06:34:57;99539.00;;;25.08
68952;BMP180;56000;51.146;17.112;2022-08-19T06:37:30;99534.20;;;25.10
68952;BMP180;56000;51.146;17.112;2022-08-19T06:40:06;99537.20;;;25.20
68952;BMP180;56000;51.146;17.112;2022-08-19T06:42:40;99558.20;;;25.40
68952;BMP180;56000;51.146;17.112;2022-08-19T06:45:25;99555.40;;;25.50
68952;BMP180;56000;51.146;17.112;2022-08-19T06:48:06;99571.40;;;25.50
68952;BMP180;56000;51.146;17.112;2022-08-19T06:50:42;99575.40;;;25.60
68952;BMP180;56000;51.146;17.112;2022-08-19T06:53:15;99582.80;;;25.76
68952;BMP180;56000;51.146;17.112;2022-08-19T06:55:49;99581.80;;;25.86
68952;BMP180;56000;51.146;17.112;2022-08-19T06:58:32;99592.40;;;26.00
68952;BMP180;56000;51.146;17.112;2022-08-19T07:01:07;99591.80;;;26.10
68952;BMP180;56000;51.146;17.112;2022-08-19T07:03:41;99586.00;;;26.12
68952;BMP180;56000;51.146;17.112;2022-08-19T07:06:16;99585.60;;;26.30
68952;BMP180;56000;51.146;17.112;2022-08-19T07:09:15;99591.80;;;26.50
68952;BMP180;56000;51.146;17.112;2022-08-19T07:11:51;99595.40;;;26.80
68952;BMP180;56000;51.146;17.112;2022-08-19T07:14:26;99597.00;;;26.90
68952;BMP180;56000;51.146;17.112;2022-08-19T07:16:59;99591.60;;;26.92
68952;BMP180;56000;51.146;17.112;2022-08-19T07:19:36;99589.80;;;27.00
68952;BMP180;56000;51.146;17.112;2022-08-19T07:22:10;99588.80;;;27.00
68952;BMP180;56000;51.146;17.112;2022-08-19T07:24:43;99594.40;;;27.20
68952;BMP180;56000;51.146;17.112;2022-08-19T07:27:22;99596.80;;;27.40
68952;BMP180;56000;51.146;17.112;2022-08-19T07:29:56;99595.80;;;27.50
68952;BMP180;56000;51.146;17.112;2022-08-19T07:32:30;99600.00;;;27.68
68952;BMP180;56000;51.146;17.112;2022-08-19T07:35:03;99608.20;;;27.88
68952;BMP180;56000;51.146;17.112;2022-08-19T07:37:37;99604.20;;;28.00
68952;BMP180;56000;51.146;17.112;2022-08-19T07:40:15;99602.80;;;28.20
68952;BMP180;56000;51.146;17.112;2022-08-19T07:42:48;99616.40;;;28.30
68952;BMP180;56000;51.146;17.112;2022-08-19T07:45:21;99613.60;;;28.38
68952;BMP180;56000;51.146;17.112;2022-08-19T07:47:54;99617.20;;;28.46
68952;BMP180;56000;51.146;17.112;2022-08-19T07:50:27;99614.80;;;28.52
68952;BMP180;56000;51.146;17.112;2022-08-19T07:52:59;99616.00;;;28.70
68952;BMP180;56000;51.146;17.112;2022-08-19T07:55:32;99617.00;;;28.90
68952;BMP180;56000;51.146;17.112;2022-08-19T07:58:17;99613.20;;;29.00
68952;BMP180;56000;51.146;17.112;2022-08-19T08:00:52;99619.40;;;29.20
68952;BMP180;56000;51.146;17.112;2022-08-19T08:03:26;99619.40;;;29.48
68952;BMP180;56000;51.146;17.112;2022-08-19T08:06:14;99620.20;;;29.80
68952;BMP180;56000;51.146;17.112;2022-08-19T08:09:06;99618.80;;;30.14
68952;BMP180;56000;51.146;17.112;2022-08-19T08:11:53;99632.40;;;30.40
68952;BMP180;56000;51.146;17.112;2022-08-19T08:14:38;99631.60;;;30.80
68952;BMP180;56000;51.146;17.112;2022-08-19T08:17:15;99633.40;;;31.10
68952;BMP180;56000;51.146;17.112;2022-08-19T08:20:10;99645.00;;;31.24
68952;BMP180;56000;51.146;17.112;2022-08-19T08:22:47;99646.80;;;31.50
68952;BMP180;56000;51.146;17.112;2022-08-19T08:25:38;99649.60;;;31.70
68952;BMP180;56000;51.146;17.112;2022-08-19T08:28:11;99652.40;;;31.70
68952;BMP180;56000;51.146;17.112;2022-08-19T08:30:49;99650.00;;;31.70
68952;BMP180;56000;51.146;17.112;2022-08-19T08:33:26;99647.80;;;31.70
68952;BMP180;56000;51.146;17.112;2022-08-19T08:36:08;99641.00;;;31.90
68952;BMP180;56000;51.146;17.112;2022-08-19T08:38:42;99640.20;;;32.10
68952;BMP180;56000;51.146;17.112;2022-08-19T08:41:26;99636.40;;;32.40
68952;BMP180;56000;51.146;17.112;2022-08-19T08:44:01;99631.40;;;32.88
68952;BMP180;56000;51.146;17.112;2022-08-19T08:46:39;99628.40;;;32.90
68952;BMP180;56000;51.146;17.112;2022-08-19T08:49:26;99631.60;;;32.90
68952;BMP180;56000;51.146;17.112;2022-08-19T08:52:04;99640.80;;;33.10
68952;BMP180;56000;51.146;17.112;2022-08-19T08:54:41;99638.20;;;33.20
68952;BMP180;56000;51.146;17.112;2022-08-19T08:57:32;99638.20;;;33.20
68952;BMP180;56000;51.146;17.112;2022-08-19T09:00:17;99633.20;;;33.50
68952;BMP180;56000;51.146;17.112;2022-08-19T09:02:51;99635.60;;;33.90
68952;BMP180;56000;51.146;17.112;2022-08-19T09:05:27;99632.40;;;34.28
68952;BMP180;56000;51.146;17.112;2022-08-19T09:08:30;99628.00;;;34.58
68952;BMP180;56000;51.146;17.112;2022-08-19T09:11:09;99625.60;;;34.70
68952;BMP180;56000;51.146;17.112;2022-08-19T09:13:53;99620.80;;;34.84
68952;BMP180;56000;51.146;17.112;2022-08-19T09:16:30;99616.20;;;35.10
68952;BMP180;56000;51.146;17.112;2022-08-19T09:19:06;99612.60;;;35.30
68952;BMP180;56000;51.146;17.112;2022-08-19T09:21:40;99614.20;;;35.60
68952;BMP180;56000;51.146;17.112;2022-08-19T09:24:13;99620.20;;;35.78
68952;BMP180;56000;51.146;17.112;2022-08-19T09:26:46;99623.80;;;35.94
68952;BMP180;56000;51.146;17.112;2022-08-19T09:29:24;99635.00;;;36.30
68952;BMP180;56000;51.146;17.112;2022-08-19T09:31:57;99633.20;;;36.60
68952;BMP180;56000;51.146;17.112;2022-08-19T09:34:31;99640.00;;;36.94
68952;BMP180;56000;51.146;17.112;2022-08-19T09:37:08;99636.20;;;37.30
68952;BMP180;56000;51.146;17.112;2022-08-19T09:39:45;99632.40;;;37.40
68952;BMP180;56000;51.146;17.112;2022-08-19T09:42:20;99632.60;;;37.68
68952;BMP180;56000;51.146;17.112;2022-08-19T09:45:01;99635.00;;;37.82
68952;BMP180;56000;51.146;17.112;2022-08-19T09:47:36;99634.00;;;38.04
68952;BMP180;56000;51.146;17.112;2022-08-19T09:50:14;99638.80;;;38.40
68952;BMP180;56000;51.146;17.112;2022-08-19T09:52:47;99633.60;;;38.70
68952;BMP180;56000;51.146;17.112;2022-08-19T09:55:28;99633.80;;;39.10
68952;BMP180;56000;51.146;17.112;2022-08-19T09:58:04;99637.20;;;39.40
68952;BMP180;56000;51.146;17.112;2022-08-19T10:00:38;99635.00;;;39.32
68952;BMP180;56000;51.146;17.112;2022-08-19T10:03:11;99641.20;;;39.58
68952;BMP180;56000;51.146;17.112;2022-08-19T10:05:44;99639.80;;;39.96
68952;BMP180;56000;51.146;17.112;2022-08-19T10:08:30;99642.00;;;40.38
68952;BMP180;56000;51.146;17.112;2022-08-19T10:11:05;99647.20;;;40.50
68952;BMP180;56000;51.146;17.112;2022-08-19T10:13:59;99643.00;;;40.70
68952;BMP180;56000;51.146;17.112;2022-08-19T10:16:35;99642.20;;;40.90
68952;BMP180;56000;51.146;17.112;2022-08-19T10:19:09;99643.80;;;41.28
68952;BMP180;56000;51.146;17.112;2022-08-19T10:21:42;99648.80;;;41.68
68952;BMP180;56000;51.146;17.112;2022-08-19T10:24:19;99649.80;;;41.90
68952;BMP180;56000;51.146;17.112;2022-08-19T10:26:55;99650.80;;;42.18
68952;BMP180;56000;51.146;17.112;2022-08-19T10:29:30;99649.20;;;42.50
68952;BMP180;56000;51.146;17.112;2022-08-19T10:32:08;99649.20;;;43.12
68952;BMP180;56000;51.146;17.112;2022-08-19T10:34:41;99644.20;;;43.60
68952;BMP180;56000;51.146;17.112;2022-08-19T10:37:19;99638.00;;;43.70
68952;BMP180;56000;51.146;17.112;2022-08-19T10:40:01;99636.00;;;43.80
68952;BMP180;56000;51.146;17.112;2022-08-19T10:42:35;99638.60;;;43.82
68952;BMP180;56000;51.146;17.112;2022-08-19T10:45:11;99636.40;;;43.90
68952;BMP180;56000;51.146;17.112;2022-08-19T10:47:44;99636.00;;;43.64
68952;BMP180;56000;51.146;17.112;2022-08-19T10:50:18;99630.60;;;43.52
68952;BMP180;56000;51.146;17.112;2022-08-19T10:53:10;99636.40;;;44.00
68952;BMP180;56000;51.146;17.112;2022-08-19T10:55:44;99633.80;;;44.46
68952;BMP180;56000;51.146;17.112;2022-08-19T10:58:35;99635.80;;;45.08
68952;BMP180;56000;51.146;17.112;2022-08-19T11:01:08;99637.20;;;45.66
68952;BMP180;56000;51.146;17.112;2022-08-19T11:03:41;99644.00;;;46.12
68952;BMP180;56000;51.146;17.112;2022-08-19T11:06:17;99642.40;;;46.40
68952;BMP180;56000;51.146;17.112;2022-08-19T11:08:50;99643.60;;;46.84
68952;BMP180;56000;51.146;17.112;2022-08-19T11:11:24;99643.60;;;46.90
68952;BMP180;56000;51.146;17.112;2022-08-19T11:13:57;99644.40;;;46.90
68952;BMP180;56000;51.146;17.112;2022-08-19T11:16:30;99641.20;;;47.00
68952;BMP180;56000;51.146;17.112;2022-08-19T11:19:04;99639.80;;;47.50
68952;BMP180;56000;51.146;17.112;2022-08-19T11:21:41;99636.20;;;47.84
68952;BMP180;56000;51.146;17.112;2022-08-19T11:24:20;99637.20;;;48.10
68952;BMP180;56000;51.146;17.112;2022-08-19T11:27:04;99637.00;;;48.38
68952;BMP180;56000;51.146;17.112;2022-08-19T11:29:38;99639.40;;;48.84
68952;BMP180;56000;51.146;17.112;2022-08-19T11:32:12;99644.80;;;48.80
68952;BMP180;56000;51.146;17.112;2022-08-19T11:34:45;99646.80;;;48.66
68952;BMP180;56000;51.146;17.112;2022-08-19T11:37:18;99646.40;;;48.20
68952;BMP180;56000;51.146;17.112;2022-08-19T11:39:51;99641.80;;;47.66
68952;BMP180;56000;51.146;17.112;2022-08-19T11:42:25;99645.80;;;47.80
68952;BMP180;56000;51.146;17.112;2022-08-19T11:45:15;99649.60;;;47.78
68952;BMP180;56000;51.146;17.112;2022-08-19T11:47:49;99650.20;;;47.90
68952;BMP180;56000;51.146;17.112;2022-08-19T11:50:23;99660.80;;;47.36
68952;BMP180;56000;51.146;17.112;2022-08-19T11:52:58;99654.60;;;46.70
68952;BMP180;56000;51.146;17.112;2022-08-19T11:55:31;99669.40;;;46.20
68952;BMP180;56000;51.146;17.112;2022-08-19T11:58:14;99662.00;;;44.92
68952;BMP180;56000;51.146;17.112;2022-08-19T12:00:49;99657.00;;;44.50
68952;BMP180;56000;51.146;17.112;2022-08-19T12:03:22;99649.20;;;44.94
68952;BMP180;56000;51.146;17.112;2022-08-19T12:05:55;99643.20;;;45.76
68952;BMP180;56000;51.146;17.112;2022-08-19T12:08:28;99644.60;;;46.62
68952;BMP180;56000;51.146;17.112;2022-08-19T12:11:01;99645.00;;;47.14
68952;BMP180;56000;51.146;17.112;2022-08-19T12:13:36;99641.60;;;47.78
68952;BMP180;56000;51.146;17.112;2022-08-19T12:16:12;99633.20;;;48.40
68952;BMP180;56000;51.146;17.112;2022-08-19T12:18:46;99638.20;;;48.70
68952;BMP180;56000;51.146;17.112;2022-08-19T12:21:22;99637.40;;;48.50
68952;BMP180;56000;51.146;17.112;2022-08-19T12:24:01;99635.80;;;47.74
68952;BMP180;56000;51.146;17.112;2022-08-19T12:26:35;99640.00;;;47.40
68952;BMP180;56000;51.146;17.112;2022-08-19T12:29:24;99633.20;;;47.40
68952;BMP180;56000;51.146;17.112;2022-08-19T12:32:01;99640.60;;;47.92
68952;BMP180;56000;51.146;17.112;2022-08-19T12:34:35;99642.00;;;47.80
68952;BMP180;56000;51.146;17.112;2022-08-19T12:37:08;99645.60;;;47.40
68952;BMP180;56000;51.146;17.112;2022-08-19T12:39:44;99649.80;;;47.34
68952;BMP180;56000;51.146;17.112;2022-08-19T12:42:17;99650.80;;;47.40
68952;BMP180;56000;51.146;17.112;2022-08-19T12:44:51;99647.80;;;47.70
68952;BMP180;56000;51.146;17.112;2022-08-19T12:47:24;99646.20;;;47.70
68952;BMP180;56000;51.146;17.112;2022-08-19T12:49:57;99648.60;;;47.50
68952;BMP180;56000;51.146;17.112;2022-08-19T12:52:36;99644.40;;;47.30
68952;BMP180;56000;51.146;17.112;2022-08-19T12:55:10;99653.80;;;47.70
68952;BMP180;56000;51.146;17.112;2022-08-19T12:57:43;99646.20;;;48.00
68952;BMP180;56000;51.146;17.112;2022-08-19T13:00:21;99643.60;;;48.34
68952;BMP180;56000;51.146;17.112;2022-08-19T13:02:54;99643.60;;;48.98
68952;BMP180;56000;51.146;17.112;2022-08-19T13:05:30;99651.40;;;48.50
68952;BMP180;56000;51.146;17.112;2022-08-19T13:08:05;99648.60;;;48.30
68952;BMP180;56000;51.146;17.112;2022-08-19T13:10:38;99649.60;;;48.52
68952;BMP180;56000;51.146;17.112;2022-08-19T13:13:12;99651.20;;;48.70
68952;BMP180;56000;51.146;17.112;2022-08-19T13:15:45;99647.80;;;48.80
68952;BMP180;56000;51.146;17.112;2022-08-19T13:18:18;99648.80;;;48.54
68952;BMP180;56000;51.146;17.112;2022-08-19T13:20:53;99647.40;;;47.74
68952;BMP180;56000;51.146;17.112;2022-08-19T13:23:26;99646.40;;;47.00
68952;BMP180;56000;51.146;17.112;2022-08-19T13:26:02;99645.60;;;46.90
68952;BMP180;56000;51.146;17.112;2022-08-19T13:28:36;99645.80;;;46.90
68952;BMP180;56000;51.146;17.112;2022-08-19T13:31:33;99644.20;;;47.28
68952;BMP180;56000;51.146;17.112;2022-08-19T13:34:32;99646.60;;;47.80
68952;BMP180;56000;51.146;17.112;2022-08-19T13:37:07;99639.60;;;48.20
68952;BMP180;56000;51.146;17.112;2022-08-19T13:39:40;99642.40;;;48.54
68952;BMP180;56000;51.146;17.112;2022-08-19T13:42:13;99642.40;;;49.10
68952;BMP180;56000;51.146;17.112;2022-08-19T13:44:46;99644.40;;;49.28
68952;BMP180;56000;51.146;17.112;2022-08-19T13:47:20;99645.60;;;49.40
68952;BMP180;56000;51.146;17.112;2022-08-19T13:49:53;99647.40;;;48.50
68952;BMP180;56000;51.146;17.112;2022-08-19T13:52:26;99651.80;;;46.70
68952;BMP180;56000;51.146;17.112;2022-08-19T13:54:59;99651.40;;;44.82
68952;BMP180;56000;51.146;17.112;2022-08-19T13:57:33;99656.00;;;43.08
68952;BMP180;56000;51.146;17.112;2022-08-19T14:00:11;99657.60;;;41.48
68952;BMP180;56000;51.146;17.112;2022-08-19T14:02:45;99656.40;;;40.50
68952;BMP180;56000;51.146;17.112;2022-08-19T14:05:20;99654.00;;;40.00
68952;BMP180;56000;51.146;17.112;2022-08-19T14:07:53;99649.20;;;39.60
68952;BMP180;56000;51.146;17.112;2022-08-19T14:10:28;99654.00;;;39.18
68952;BMP180;56000;51.146;17.112;2022-08-19T14:13:04;99652.00;;;38.70
68952;BMP180;56000;51.146;17.112;2022-08-19T14:15:38;99647.80;;;38.32
68952;BMP180;56000;51.146;17.112;2022-08-19T14:18:12;99643.80;;;38.00
68952;BMP180;56000;51.146;17.112;2022-08-19T14:20:45;99645.80;;;37.70
68952;BMP180;56000;51.146;17.112;2022-08-19T14:23:19;99647.00;;;37.38
68952;BMP180;56000;51.146;17.112;2022-08-19T14:25:52;99643.20;;;36.94
68952;BMP180;56000;51.146;17.112;2022-08-19T14:28:33;99640.80;;;36.48
68952;BMP180;56000;51.146;17.112;2022-08-19T14:31:06;99635.60;;;36.00
68952;BMP180;56000;51.146;17.112;2022-08-19T14:33:40;99630.60;;;35.64
68952;BMP180;56000;51.146;17.112;2022-08-19T14:36:13;99630.80;;;35.30
68952;BMP180;56000;51.146;17.112;2022-08-19T14:38:46;99628.40;;;35.00
68952;BMP180;56000;51.146;17.112;2022-08-19T14:41:24;99628.00;;;34.80
68952;BMP180;56000;51.146;17.112;2022-08-19T14:43:58;99629.60;;;34.70
68952;BMP180;56000;51.146;17.112;2022-08-19T14:46:31;99625.40;;;34.56